createdAt,value
2018-10-17T00:01:12.195Z,93
2018-10-17T00:06:11.984Z,93
2018-10-17T00:11:11.225Z,93
2018-10-17T00:16:11.330Z,93
2018-10-17T00:21:11.292Z,93
2018-10-17T00:26:11.285Z,93
2018-10-17T00:31:11.396Z,93
2018-10-17T00:36:11.631Z,93
2018-10-17T00:41:11.644Z,93
2018-10-17T00:46:11.536Z,93
2018-10-17T00:51:11.431Z,93
2018-10-17T00:56:11.478Z,93
2018-10-17T01:01:12.076Z,93
2018-10-17T01:06:11.214Z,93
2018-10-17T01:11:11.328Z,93
2018-10-17T01:16:11.335Z,94
2018-10-17T01:21:11.264Z,94
2018-10-17T01:26:11.236Z,93
2018-10-17T01:31:12.222Z,93
2018-10-17T01:36:12.174Z,93
2018-10-17T01:41:12.149Z,93
2018-10-17T01:46:11.981Z,94
2018-10-17T01:51:11.859Z,94
2018-10-17T01:56:11.641Z,94
2018-10-17T02:01:11.811Z,94
2018-10-17T02:06:12.155Z,94
2018-10-17T02:11:12.346Z,94
2018-10-17T02:16:11.324Z,94
2018-10-17T02:21:12.256Z,94
2018-10-17T02:26:12.109Z,94
2018-10-17T02:31:12.146Z,94
2018-10-17T02:36:11.294Z,94
2018-10-17T02:41:12.352Z,94
2018-10-17T02:46:11.325Z,94
2018-10-17T02:51:11.542Z,94
2018-10-17T02:56:11.698Z,94
2018-10-17T03:01:12.053Z,94
2018-10-17T03:06:11.397Z,94
2018-10-17T03:11:11.494Z,94
2018-10-17T03:16:11.546Z,94
2018-10-17T03:21:11.503Z,94
2018-10-17T03:26:11.424Z,94
2018-10-17T03:31:12.390Z,94
2018-10-17T03:36:11.424Z,94
2018-10-17T03:41:11.663Z,94
2018-10-17T03:46:11.765Z,94
2018-10-17T03:51:11.700Z,94
2018-10-17T03:56:11.540Z,94
2018-10-17T04:01:11.663Z,94
2018-10-17T04:06:12.246Z,94
2018-10-17T04:11:12.473Z,94
2018-10-17T04:16:11.552Z,94
2018-10-17T04:21:11.549Z,94
2018-10-17T04:26:12.088Z,95
2018-10-17T04:31:11.744Z,95
2018-10-17T04:36:11.853Z,95
2018-10-17T04:41:12.132Z,95
2018-10-17T04:46:12.185Z,95
2018-10-17T04:51:12.133Z,95
2018-10-17T04:56:12.089Z,95
2018-10-17T05:01:12.390Z,95
2018-10-17T05:06:12.008Z,96
2018-10-17T05:11:11.903Z,96
2018-10-17T05:16:12.020Z,96
2018-10-17T05:21:11.846Z,96
2018-10-17T05:26:11.663Z,96
2018-10-17T05:31:11.777Z,96
2018-10-17T05:36:12.109Z,96
2018-10-17T05:41:12.066Z,96
2018-10-17T05:46:12.130Z,96
2018-10-17T05:51:12.027Z,96
2018-10-17T05:56:12.077Z,96
2018-10-17T06:01:11.700Z,96
2018-10-17T06:06:12.089Z,96
2018-10-17T06:11:12.167Z,96
2018-10-17T06:16:12.206Z,96
2018-10-17T06:21:12.195Z,96
2018-10-17T06:26:12.138Z,96
2018-10-17T06:31:12.257Z,96
2018-10-17T06:36:12.297Z,96
2018-10-17T06:41:12.458Z,96
2018-10-17T06:46:12.513Z,96
2018-10-17T06:51:12.169Z,96
2018-10-17T06:56:12.036Z,97
2018-10-17T07:01:12.281Z,97
2018-10-17T07:06:12.507Z,97
2018-10-17T07:11:12.608Z,97
2018-10-17T07:16:11.745Z,97
2018-10-17T07:21:11.702Z,97
2018-10-17T07:26:11.586Z,98
2018-10-17T07:31:12.352Z,98
2018-10-17T07:36:12.584Z,98
2018-10-17T07:41:12.565Z,98
2018-10-17T07:46:12.512Z,99
2018-10-17T07:51:12.429Z,99
2018-10-17T07:56:12.267Z,99
2018-10-17T08:01:12.532Z,99
2018-10-17T08:06:11.993Z,99
2018-10-17T08:11:12.039Z,99
2018-10-17T08:16:12.115Z,98
2018-10-17T08:21:12.126Z,98
2018-10-17T08:26:12.001Z,97
2018-10-17T08:31:12.024Z,97
2018-10-17T08:36:12.244Z,94
2018-10-17T08:41:12.767Z,94
2018-10-17T08:46:11.765Z,90
2018-10-17T08:51:12.650Z,90
2018-10-17T08:56:12.592Z,88
2018-10-17T09:01:11.813Z,88
2018-10-17T09:06:12.570Z,86
2018-10-17T09:11:12.605Z,86
2018-10-17T09:16:12.790Z,84
2018-10-17T09:21:12.148Z,84
2018-10-17T09:26:12.335Z,80
2018-10-17T09:31:12.409Z,80
2018-10-17T09:36:12.781Z,79
2018-10-17T09:41:12.824Z,79
2018-10-17T09:46:11.907Z,77
2018-10-17T09:51:11.864Z,77
2018-10-17T09:56:11.980Z,76
2018-10-17T10:01:12.125Z,76
2018-10-17T10:06:12.119Z,74
2018-10-17T10:11:12.158Z,74
2018-10-17T10:16:12.107Z,72
2018-10-17T10:21:12.167Z,72
2018-10-17T10:26:12.129Z,70
2018-10-17T10:31:12.149Z,70
2018-10-17T10:36:12.103Z,68
2018-10-17T10:41:12.189Z,68
2018-10-17T10:46:12.078Z,69
2018-10-17T10:51:12.023Z,69
2018-10-17T10:56:12.030Z,68
2018-10-17T11:01:12.100Z,68
2018-10-17T11:06:12.255Z,65
2018-10-17T11:11:12.339Z,65
2018-10-17T11:16:12.329Z,66
2018-10-17T11:21:12.374Z,66
2018-10-17T11:26:12.311Z,63
2018-10-17T11:31:12.256Z,63
2018-10-17T11:36:12.119Z,64
2018-10-17T11:41:12.116Z,64
2018-10-17T11:46:12.003Z,63
2018-10-17T11:51:12.206Z,63
2018-10-17T11:56:12.282Z,64
2018-10-17T12:01:12.343Z,64
2018-10-17T12:06:12.958Z,65
2018-10-17T12:11:12.796Z,65
2018-10-17T12:16:12.800Z,62
2018-10-17T12:21:12.947Z,62
2018-10-17T12:26:11.962Z,63
2018-10-17T12:31:12.912Z,63
2018-10-17T12:36:12.528Z,62
2018-10-17T12:41:12.558Z,62
2018-10-17T12:46:12.552Z,61
2018-10-17T12:51:12.525Z,61
2018-10-17T12:56:12.458Z,61
2018-10-17T13:01:12.638Z,61
2018-10-17T13:06:12.890Z,61
2018-10-17T13:11:12.505Z,61
2018-10-17T13:16:12.605Z,61
2018-10-17T13:21:12.566Z,61
2018-10-17T13:26:12.531Z,61
2018-10-17T13:31:12.600Z,61
2018-10-17T13:36:12.533Z,62
2018-10-17T13:41:12.546Z,62
2018-10-17T13:46:12.624Z,60
2018-10-17T13:51:12.518Z,60
2018-10-17T13:56:12.479Z,62
2018-10-17T14:01:12.785Z,62
2018-10-17T14:06:12.953Z,64
2018-10-17T14:11:12.502Z,64
2018-10-17T14:16:12.381Z,63
2018-10-17T14:21:12.426Z,63
2018-10-17T14:26:12.391Z,65
2018-10-17T14:31:12.393Z,65
2018-10-17T14:36:12.471Z,65
2018-10-17T14:41:12.642Z,65
2018-10-17T14:46:12.646Z,64
2018-10-17T14:51:12.795Z,64
2018-10-17T14:56:12.710Z,63
2018-10-17T15:01:12.878Z,63
2018-10-17T15:06:12.266Z,64
2018-10-17T15:11:12.778Z,64
2018-10-17T15:16:12.866Z,65
2018-10-17T15:21:12.914Z,65
2018-10-17T15:26:13.142Z,66
2018-10-17T15:31:13.115Z,66
2018-10-17T15:36:13.234Z,67
2018-10-17T15:41:12.247Z,67
2018-10-17T15:46:12.207Z,69
2018-10-17T15:51:13.199Z,69
2018-10-17T15:56:12.232Z,71
2018-10-17T16:01:12.687Z,71
2018-10-17T16:06:12.909Z,73
2018-10-17T16:11:12.446Z,73
2018-10-17T16:16:12.444Z,75
2018-10-17T16:21:12.409Z,75
2018-10-17T16:26:12.547Z,76
2018-10-17T16:31:12.884Z,76
2018-10-17T16:36:13.115Z,78
2018-10-17T16:41:13.230Z,78
2018-10-17T16:46:12.273Z,79
2018-10-17T16:51:13.217Z,79
2018-10-17T16:56:13.200Z,80
2018-10-17T17:01:13.261Z,80
2018-10-17T17:06:12.600Z,81
2018-10-17T17:11:12.923Z,81
2018-10-17T17:16:13.189Z,82
2018-10-17T17:21:13.228Z,82
2018-10-17T17:26:12.274Z,83
2018-10-17T17:31:13.365Z,83
2018-10-17T17:36:12.628Z,83
2018-10-17T17:41:12.501Z,83
2018-10-17T17:46:12.564Z,84
2018-10-17T17:51:12.623Z,84
2018-10-17T17:56:12.548Z,86
2018-10-17T18:01:12.841Z,86
2018-10-17T18:06:12.441Z,86
2018-10-17T18:11:13.298Z,86
2018-10-17T18:16:12.432Z,87
2018-10-17T18:21:12.613Z,87
2018-10-17T18:26:12.770Z,88
2018-10-17T18:31:12.872Z,88
2018-10-17T18:36:12.908Z,88
2018-10-17T18:41:13.089Z,88
2018-10-17T18:46:13.207Z,88
2018-10-17T18:51:13.361Z,88
2018-10-17T18:56:12.460Z,89
2018-10-17T19:01:12.578Z,89
2018-10-17T19:06:12.421Z,89
2018-10-17T19:11:12.608Z,89
2018-10-17T19:16:12.654Z,89
2018-10-17T19:21:12.820Z,89
2018-10-17T19:26:12.909Z,90
2018-10-17T19:31:13.198Z,90
2018-10-17T19:36:13.139Z,90
2018-10-17T19:41:13.259Z,90
2018-10-17T19:46:13.218Z,90
2018-10-17T19:51:13.146Z,90
2018-10-17T19:56:13.215Z,90
2018-10-17T20:01:13.277Z,90
2018-10-17T20:06:12.599Z,91
2018-10-17T20:11:12.976Z,91
2018-10-17T20:16:12.909Z,91
2018-10-17T20:21:13.119Z,91
2018-10-17T20:26:13.317Z,91
2018-10-17T20:31:13.370Z,91
2018-10-17T20:36:13.335Z,91
2018-10-17T20:41:13.325Z,91
2018-10-17T20:46:13.282Z,91
2018-10-17T20:51:13.251Z,91
2018-10-17T20:56:13.278Z,91
2018-10-17T21:01:13.445Z,91
2018-10-17T21:06:12.885Z,91
2018-10-17T21:11:12.564Z,91
2018-10-17T21:16:13.502Z,92
2018-10-17T21:21:13.425Z,92
2018-10-17T21:26:13.315Z,92
2018-10-17T21:31:13.138Z,92
2018-10-17T21:36:13.183Z,93
2018-10-17T21:41:13.288Z,93
2018-10-17T21:46:13.258Z,93
2018-10-17T21:51:18.252Z,93
2018-10-17T21:56:13.252Z,93
2018-10-17T22:01:13.005Z,93
2018-10-17T22:06:13.582Z,93
2018-10-17T22:11:13.727Z,93
2018-10-17T22:16:12.702Z,93
2018-10-17T22:21:12.679Z,93
2018-10-17T22:26:13.607Z,93
2018-10-17T22:31:12.790Z,93
2018-10-17T22:36:12.752Z,93
2018-10-17T22:41:12.852Z,93
2018-10-17T22:46:13.010Z,94
2018-10-17T22:51:13.046Z,94
2018-10-17T22:56:13.061Z,94
2018-10-17T23:01:13.275Z,94
2018-10-17T23:06:13.484Z,94
2018-10-17T23:11:13.426Z,94
2018-10-17T23:16:13.506Z,95
2018-10-17T23:21:13.547Z,95
2018-10-17T23:26:13.903Z,95
2018-10-17T23:31:12.977Z,95
2018-10-17T23:36:12.929Z,96
2018-10-17T23:41:13.118Z,96
2018-10-17T23:46:13.079Z,96
2018-10-17T23:51:13.520Z,96
2018-10-17T23:56:13.592Z,96
